sensor_id;sensor_type;location;lat;lon;timestamp;P1;durP1;ratioP1;P2;durP2;ratioP2
7330;SDS011;3706;49.198;7.064;2023-11-18T00:02:31;13.35;;;8.27;;
7330;SDS011;3706;49.198;7.064;2023-11-18T00:06:12;9.20;;;6.82;;
7330;SDS011;3706;49.198;7.064;2023-11-18T00:09:50;10.98;;;5.50;;
7330;SDS011;3706;49.198;7.064;2023-11-18T00:13:25;16.35;;;7.22;;
7330;SDS011;3706;49.198;7.064;2023-11-18T00:16:57;15.70;;;6.97;;
7330;SDS011;3706;49.198;7.064;2023-11-18T00:20:36;32.67;;;9.23;;
7330;SDS011;3706;49.198;7.064;2023-11-18T00:24:17;25.10;;;10.10;;
7330;SDS011;3706;49.198;7.064;2023-11-18T00:27:53;22.38;;;8.60;;
7330;SDS011;3706;49.198;7.064;2023-11-18T00:31:24;13.88;;;7.97;;
7330;SDS011;3706;49.198;7.064;2023-11-18T00:35:03;9.18;;;5.28;;
7330;SDS011;3706;49.198;7.064;2023-11-18T00:38:43;12.30;;;7.32;;
7330;SDS011;3706;49.198;7.064;2023-11-18T00:42:20;15.05;;;7.50;;
7330;SDS011;3706;49.198;7.064;2023-11-18T00:45:51;18.00;;;7.93;;
7330;SDS011;3706;49.198;7.064;2023-11-18T00:49:30;11.80;;;5.35;;
7330;SDS011;3706;49.198;7.064;2023-11-18T00:53:08;12.50;;;7.20;;
7330;SDS011;3706;49.198;7.064;2023-11-18T00:56:43;11.43;;;6.28;;
7330;SDS011;3706;49.198;7.064;2023-11-18T01:00:16;12.02;;;6.97;;
7330;SDS011;3706;49.198;7.064;2023-11-18T01:03:58;11.32;;;8.00;;
7330;SDS011;3706;49.198;7.064;2023-11-18T01:07:37;11.07;;;5.82;;
7330;SDS011;3706;49.198;7.064;2023-11-18T01:11:15;16.77;;;8.13;;
7330;SDS011;3706;49.198;7.064;2023-11-18T01:14:49;24.92;;;10.02;;
7330;SDS011;3706;49.198;7.064;2023-11-18T01:18:30;8.82;;;5.85;;
7330;SDS011;3706;49.198;7.064;2023-11-18T01:22:09;14.52;;;7.57;;
7330;SDS011;3706;49.198;7.064;2023-11-18T01:25:44;23.70;;;10.50;;
7330;SDS011;3706;49.198;7.064;2023-11-18T01:29:18;7.72;;;4.68;;
7330;SDS011;3706;49.198;7.064;2023-11-18T01:32:59;18.80;;;6.88;;
7330;SDS011;3706;49.198;7.064;2023-11-18T01:36:40;26.02;;;8.98;;
7330;SDS011;3706;49.198;7.064;2023-11-18T01:40:16;19.55;;;8.02;;
7330;SDS011;3706;49.198;7.064;2023-11-18T01:43:47;18.45;;;8.45;;
7330;SDS011;3706;49.198;7.064;2023-11-18T01:47:26;39.08;;;10.77;;
7330;SDS011;3706;49.198;7.064;2023-11-18T01:51:07;24.15;;;6.95;;
7330;SDS011;3706;49.198;7.064;2023-11-18T01:54:46;12.50;;;6.63;;
7330;SDS011;3706;49.198;7.064;2023-11-18T01:58:19;22.13;;;8.13;;
7330;SDS011;3706;49.198;7.064;2023-11-18T02:02:00;13.65;;;7.25;;
7330;SDS011;3706;49.198;7.064;2023-11-18T02:05:39;9.48;;;6.72;;
7330;SDS011;3706;49.198;7.064;2023-11-18T02:09:14;14.65;;;6.45;;
7330;SDS011;3706;49.198;7.064;2023-11-18T02:12:50;14.00;;;6.85;;
7330;SDS011;3706;49.198;7.064;2023-11-18T02:16:42;15.40;;;7.88;;
7330;SDS011;3706;49.198;7.064;2023-11-18T02:20:22;20.33;;;7.65;;
7330;SDS011;3706;49.198;7.064;2023-11-18T02:23:57;10.02;;;6.18;;
7330;SDS011;3706;49.198;7.064;2023-11-18T02:27:30;17.95;;;7.68;;
7330;SDS011;3706;49.198;7.064;2023-11-18T02:31:12;27.67;;;7.07;;
7330;SDS011;3706;49.198;7.064;2023-11-18T02:34:56;10.15;;;6.97;;
7330;SDS011;3706;49.198;7.064;2023-11-18T02:38:40;8.35;;;5.85;;
7330;SDS011;3706;49.198;7.064;2023-11-18T02:42:15;11.75;;;6.15;;
7330;SDS011;3706;49.198;7.064;2023-11-18T02:45:55;15.73;;;6.55;;
7330;SDS011;3706;49.198;7.064;2023-11-18T02:49:36;18.98;;;8.00;;
7330;SDS011;3706;49.198;7.064;2023-11-18T02:53:11;160.02;;;11.93;;
7330;SDS011;3706;49.198;7.064;2023-11-18T02:56:45;26.27;;;6.85;;
7330;SDS011;3706;49.198;7.064;2023-11-18T03:00:24;28.67;;;7.57;;
7330;SDS011;3706;49.198;7.064;2023-11-18T03:04:05;22.65;;;7.28;;
7330;SDS011;3706;49.198;7.064;2023-11-18T03:07:41;25.30;;;8.68;;
7330;SDS011;3706;49.198;7.064;2023-11-18T03:11:13;15.25;;;8.35;;
7330;SDS011;3706;49.198;7.064;2023-11-18T03:14:52;31.75;;;9.10;;
7330;SDS011;3706;49.198;7.064;2023-11-18T03:18:31;24.40;;;7.38;;
7330;SDS011;3706;49.198;7.064;2023-11-18T03:22:07;63.80;;;11.50;;
7330;SDS011;3706;49.198;7.064;2023-11-18T03:25:41;165.82;;;12.90;;
7330;SDS011;3706;49.198;7.064;2023-11-18T03:29:22;65.85;;;11.57;;
7330;SDS011;3706;49.198;7.064;2023-11-18T03:33:02;112.20;;;10.93;;
7330;SDS011;3706;49.198;7.064;2023-11-18T03:36:38;23.83;;;7.80;;
7330;SDS011;3706;49.198;7.064;2023-11-18T03:40:13;12.15;;;6.32;;
7330;SDS011;3706;49.198;7.064;2023-11-18T03:43:52;50.97;;;11.88;;
7330;SDS011;3706;49.198;7.064;2023-11-18T03:47:33;44.30;;;9.07;;
7330;SDS011;3706;49.198;7.064;2023-11-18T03:51:07;21.17;;;10.77;;
7330;SDS011;3706;49.198;7.064;2023-11-18T03:54:41;29.67;;;11.80;;
7330;SDS011;3706;49.198;7.064;2023-11-18T03:58:24;22.80;;;12.38;;
7330;SDS011;3706;49.198;7.064;2023-11-18T04:02:04;29.77;;;12.40;;
7330;SDS011;3706;49.198;7.064;2023-11-18T04:05:40;31.30;;;10.65;;
7330;SDS011;3706;49.198;7.064;2023-11-18T04:09:15;22.88;;;8.50;;
7330;SDS011;3706;49.198;7.064;2023-11-18T04:12:54;21.63;;;10.73;;
7330;SDS011;3706;49.198;7.064;2023-11-18T04:16:37;23.92;;;11.13;;
7330;SDS011;3706;49.198;7.064;2023-11-18T04:20:14;26.73;;;10.15;;
7330;SDS011;3706;49.198;7.064;2023-11-18T04:23:48;36.63;;;10.60;;
7330;SDS011;3706;49.198;7.064;2023-11-18T04:27:28;23.10;;;10.10;;
7330;SDS011;3706;49.198;7.064;2023-11-18T04:31:09;24.10;;;9.60;;
7330;SDS011;3706;49.198;7.064;2023-11-18T04:34:45;30.15;;;13.35;;
7330;SDS011;3706;49.198;7.064;2023-11-18T04:38:19;23.35;;;11.48;;
7330;SDS011;3706;49.198;7.064;2023-11-18T04:42:00;17.77;;;10.23;;
7330;SDS011;3706;49.198;7.064;2023-11-18T04:45:41;20.73;;;11.75;;
7330;SDS011;3706;49.198;7.064;2023-11-18T04:49:17;34.08;;;11.60;;
7330;SDS011;3706;49.198;7.064;2023-11-18T04:52:54;21.70;;;10.27;;
7330;SDS011;3706;49.198;7.064;2023-11-18T04:56:34;18.90;;;10.68;;
7330;SDS011;3706;49.198;7.064;2023-11-18T05:00:15;22.45;;;12.48;;
7330;SDS011;3706;49.198;7.064;2023-11-18T05:03:52;12.90;;;8.45;;
7330;SDS011;3706;49.198;7.064;2023-11-18T05:07:23;19.90;;;8.40;;
7330;SDS011;3706;49.198;7.064;2023-11-18T05:11:06;17.92;;;9.38;;
7330;SDS011;3706;49.198;7.064;2023-11-18T05:14:45;15.02;;;9.68;;
7330;SDS011;3706;49.198;7.064;2023-11-18T05:18:22;16.08;;;8.68;;
7330;SDS011;3706;49.198;7.064;2023-11-18T05:21:53;24.38;;;10.57;;
7330;SDS011;3706;49.198;7.064;2023-11-18T05:25:34;20.20;;;10.25;;
7330;SDS011;3706;49.198;7.064;2023-11-18T05:29:16;14.60;;;8.55;;
7330;SDS011;3706;49.198;7.064;2023-11-18T05:32:51;14.75;;;8.85;;
7330;SDS011;3706;49.198;7.064;2023-11-18T05:36:22;14.18;;;7.53;;
7330;SDS011;3706;49.198;7.064;2023-11-18T05:40:05;11.90;;;8.13;;
7330;SDS011;3706;49.198;7.064;2023-11-18T05:43:45;23.77;;;8.63;;
7330;SDS011;3706;49.198;7.064;2023-11-18T05:47:25;11.20;;;7.15;;
7330;SDS011;3706;49.198;7.064;2023-11-18T05:50:56;12.20;;;6.60;;
7330;SDS011;3706;49.198;7.064;2023-11-18T05:54:35;10.10;;;6.85;;
7330;SDS011;3706;49.198;7.064;2023-11-18T05:58:14;6.32;;;5.47;;
7330;SDS011;3706;49.198;7.064;2023-11-18T06:01:48;7.07;;;6.07;;
7330;SDS011;3706;49.198;7.064;2023-11-18T06:05:22;7.40;;;5.32;;
7330;SDS011;3706;49.198;7.064;2023-11-18T06:09:03;7.43;;;5.82;;
7330;SDS011;3706;49.198;7.064;2023-11-18T06:12:46;7.85;;;5.47;;
7330;SDS011;3706;49.198;7.064;2023-11-18T06:16:20;6.93;;;5.65;;
7330;SDS011;3706;49.198;7.064;2023-11-18T06:19:53;7.47;;;5.88;;
7330;SDS011;3706;49.198;7.064;2023-11-18T06:23:33;8.45;;;5.20;;
7330;SDS011;3706;49.198;7.064;2023-11-18T06:27:12;8.15;;;5.47;;
7330;SDS011;3706;49.198;7.064;2023-11-18T06:30:48;9.18;;;6.35;;
7330;SDS011;3706;49.198;7.064;2023-11-18T06:34:19;13.23;;;5.75;;
7330;SDS011;3706;49.198;7.064;2023-11-18T06:37:58;6.65;;;5.65;;
7330;SDS011;3706;49.198;7.064;2023-11-18T06:41:39;13.55;;;5.85;;
7330;SDS011;3706;49.198;7.064;2023-11-18T06:45:24;9.50;;;6.60;;
7330;SDS011;3706;49.198;7.064;2023-11-18T06:48:56;8.32;;;5.20;;
7330;SDS011;3706;49.198;7.064;2023-11-18T06:52:36;19.60;;;6.35;;
7330;SDS011;3706;49.198;7.064;2023-11-18T06:56:15;9.15;;;5.80;;
7330;SDS011;3706;49.198;7.064;2023-11-18T06:59:51;5.53;;;4.57;;
7330;SDS011;3706;49.198;7.064;2023-11-18T07:03:22;5.93;;;3.80;;
7330;SDS011;3706;49.198;7.064;2023-11-18T07:07:01;9.13;;;6.03;;
7330;SDS011;3706;49.198;7.064;2023-11-18T07:10:40;9.70;;;5.85;;
7330;SDS011;3706;49.198;7.064;2023-11-18T07:14:15;8.45;;;5.78;;
7330;SDS011;3706;49.198;7.064;2023-11-18T07:17:48;6.97;;;5.78;;
7330;SDS011;3706;49.198;7.064;2023-11-18T07:21:28;6.63;;;5.80;;
7330;SDS011;3706;49.198;7.064;2023-11-18T07:25:07;5.60;;;4.40;;
7330;SDS011;3706;49.198;7.064;2023-11-18T07:28:43;10.38;;;5.22;;
7330;SDS011;3706;49.198;7.064;2023-11-18T07:32:14;13.98;;;5.72;;
7330;SDS011;3706;49.198;7.064;2023-11-18T07:35:57;6.78;;;5.20;;
7330;SDS011;3706;49.198;7.064;2023-11-18T07:39:36;8.73;;;4.70;;
7330;SDS011;3706;49.198;7.064;2023-11-18T07:43:17;6.95;;;5.30;;
7330;SDS011;3706;49.198;7.064;2023-11-18T07:46:51;6.47;;;4.47;;
7330;SDS011;3706;49.198;7.064;2023-11-18T07:50:30;13.02;;;4.80;;
7330;SDS011;3706;49.198;7.064;2023-11-18T07:54:11;6.60;;;4.95;;
7330;SDS011;3706;49.198;7.064;2023-11-18T07:57:46;9.20;;;5.93;;
7330;SDS011;3706;49.198;7.064;2023-11-18T08:01:18;7.70;;;4.40;;
7330;SDS011;3706;49.198;7.064;2023-11-18T08:04:58;7.03;;;4.50;;
7330;SDS011;3706;49.198;7.064;2023-11-18T08:08:37;8.40;;;5.25;;
7330;SDS011;3706;49.198;7.064;2023-11-18T08:12:12;13.75;;;4.75;;
7330;SDS011;3706;49.198;7.064;2023-11-18T08:15:44;7.15;;;3.90;;
7330;SDS011;3706;49.198;7.064;2023-11-18T08:19:23;10.90;;;3.33;;
7330;SDS011;3706;49.198;7.064;2023-11-18T08:23:02;6.10;;;3.88;;
7330;SDS011;3706;49.198;7.064;2023-11-18T08:26:37;5.50;;;3.90;;
7330;SDS011;3706;49.198;7.064;2023-11-18T08:30:11;5.47;;;3.72;;
7330;SDS011;3706;49.198;7.064;2023-11-18T08:33:50;7.13;;;3.33;;
7330;SDS011;3706;49.198;7.064;2023-11-18T08:37:31;6.15;;;3.38;;
7330;SDS011;3706;49.198;7.064;2023-11-18T08:41:06;3.55;;;2.75;;
7330;SDS011;3706;49.198;7.064;2023-11-18T08:44:38;3.42;;;2.88;;
7330;SDS011;3706;49.198;7.064;2023-11-18T08:48:18;8.55;;;3.03;;
7330;SDS011;3706;49.198;7.064;2023-11-18T08:51:59;5.95;;;2.85;;
7330;SDS011;3706;49.198;7.064;2023-11-18T08:55:34;7.45;;;2.90;;
7330;SDS011;3706;49.198;7.064;2023-11-18T08:59:20;3.78;;;2.63;;
7330;SDS011;3706;49.198;7.064;2023-11-18T09:03:01;6.55;;;2.50;;
7330;SDS011;3706;49.198;7.064;2023-11-18T09:06:44;2.25;;;2.03;;
7330;SDS011;3706;49.198;7.064;2023-11-18T09:10:19;3.65;;;1.85;;
7330;SDS011;3706;49.198;7.064;2023-11-18T09:13:51;1.63;;;1.50;;
7330;SDS011;3706;49.198;7.064;2023-11-18T09:17:31;2.45;;;1.80;;
7330;SDS011;3706;49.198;7.064;2023-11-18T09:21:10;4.30;;;2.53;;
7330;SDS011;3706;49.198;7.064;2023-11-18T09:24:49;4.00;;;2.40;;
7330;SDS011;3706;49.198;7.064;2023-11-18T09:28:21;3.22;;;1.98;;
7330;SDS011;3706;49.198;7.064;2023-11-18T09:32:02;4.20;;;2.33;;
7330;SDS011;3706;49.198;7.064;2023-11-18T09:35:43;2.15;;;1.90;;
7330;SDS011;3706;49.198;7.064;2023-11-18T09:39:17;2.55;;;2.17;;
7330;SDS011;3706;49.198;7.064;2023-11-18T09:43:00;2.78;;;2.30;;
7330;SDS011;3706;49.198;7.064;2023-11-18T09:46:46;2.80;;;2.47;;
7330;SDS011;3706;49.198;7.064;2023-11-18T09:50:33;6.18;;;4.03;;
7330;SDS011;3706;49.198;7.064;2023-11-18T09:54:12;5.45;;;2.85;;
7330;SDS011;3706;49.198;7.064;2023-11-18T09:57:51;3.05;;;2.60;;
7330;SDS011;3706;49.198;7.064;2023-11-18T10:01:38;4.60;;;2.75;;
7330;SDS011;3706;49.198;7.064;2023-11-18T10:05:18;2.60;;;2.25;;
7330;SDS011;3706;49.198;7.064;2023-11-18T10:08:55;4.03;;;2.97;;
7330;SDS011;3706;49.198;7.064;2023-11-18T10:12:26;2.95;;;2.67;;
7330;SDS011;3706;49.198;7.064;2023-11-18T10:16:07;4.97;;;2.40;;
7330;SDS011;3706;49.198;7.064;2023-11-18T10:19:52;2.47;;;2.22;;
7330;SDS011;3706;49.198;7.064;2023-11-18T10:23:29;2.58;;;2.17;;
7330;SDS011;3706;49.198;7.064;2023-11-18T10:27:03;4.30;;;2.35;;
7330;SDS011;3706;49.198;7.064;2023-11-18T10:30:45;3.13;;;2.72;;
7330;SDS011;3706;49.198;7.064;2023-11-18T10:34:24;4.25;;;2.63;;
7330;SDS011;3706;49.198;7.064;2023-11-18T10:38:02;4.55;;;2.72;;
7330;SDS011;3706;49.198;7.064;2023-11-18T10:41:39;4.15;;;2.83;;
7330;SDS011;3706;49.198;7.064;2023-11-18T10:45:23;2.03;;;1.85;;
7330;SDS011;3706;49.198;7.064;2023-11-18T10:49:04;4.00;;;1.92;;
7330;SDS011;3706;49.198;7.064;2023-11-18T10:52:42;3.08;;;2.47;;
7330;SDS011;3706;49.198;7.064;2023-11-18T10:56:17;1.77;;;1.60;;
7330;SDS011;3706;49.198;7.064;2023-11-18T11:00:04;3.00;;;2.45;;
7330;SDS011;3706;49.198;7.064;2023-11-18T11:03:52;1.77;;;1.50;;
7330;SDS011;3706;49.198;7.064;2023-11-18T11:07:29;13.32;;;3.05;;
7330;SDS011;3706;49.198;7.064;2023-11-18T11:11:03;2.83;;;2.40;;
7330;SDS011;3706;49.198;7.064;2023-11-18T11:14:56;8.38;;;3.33;;
7330;SDS011;3706;49.198;7.064;2023-11-18T11:18:37;3.70;;;2.60;;
7330;SDS011;3706;49.198;7.064;2023-11-18T11:22:18;6.47;;;2.72;;
7330;SDS011;3706;49.198;7.064;2023-11-18T11:25:57;8.40;;;2.58;;
7330;SDS011;3706;49.198;7.064;2023-11-18T11:29:48;6.35;;;2.28;;
7330;SDS011;3706;49.198;7.064;2023-11-18T11:33:37;1.80;;;1.48;;
7330;SDS011;3706;49.198;7.064;2023-11-18T11:37:17;1.92;;;1.77;;
7330;SDS011;3706;49.198;7.064;2023-11-18T11:40:50;2.88;;;2.30;;
7330;SDS011;3706;49.198;7.064;2023-11-18T11:44:29;2.35;;;2.17;;
7330;SDS011;3706;49.198;7.064;2023-11-18T11:48:14;4.97;;;2.53;;
7330;SDS011;3706;49.198;7.064;2023-11-18T11:51:52;5.13;;;2.20;;
7330;SDS011;3706;49.198;7.064;2023-11-18T11:55:29;2.60;;;2.10;;
7330;SDS011;3706;49.198;7.064;2023-11-18T11:59:15;4.85;;;2.33;;
7330;SDS011;3706;49.198;7.064;2023-11-18T12:02:53;3.00;;;2.33;;
7330;SDS011;3706;49.198;7.064;2023-11-18T12:06:29;2.00;;;1.70;;
7330;SDS011;3706;49.198;7.064;2023-11-18T12:10:03;14.98;;;2.20;;
7330;SDS011;3706;49.198;7.064;2023-11-18T12:14:00;4.07;;;3.72;;
7330;SDS011;3706;49.198;7.064;2023-11-18T12:21:57;3.78;;;2.30;;
7330;SDS011;3706;49.198;7.064;2023-11-18T12:25:34;2.67;;;2.30;;
7330;SDS011;3706;49.198;7.064;2023-11-18T12:29:31;2.95;;;2.17;;
7330;SDS011;3706;49.198;7.064;2023-11-18T12:33:11;2.40;;;1.65;;
7330;SDS011;3706;49.198;7.064;2023-11-18T12:37:04;2.97;;;2.65;;
7330;SDS011;3706;49.198;7.064;2023-11-18T12:40:55;4.53;;;2.53;;
7330;SDS011;3706;49.198;7.064;2023-11-18T12:44:47;2.80;;;2.53;;
7330;SDS011;3706;49.198;7.064;2023-11-18T12:48:44;4.38;;;2.38;;
7330;SDS011;3706;49.198;7.064;2023-11-18T12:52:23;3.50;;;2.42;;
7330;SDS011;3706;49.198;7.064;2023-11-18T12:55:57;5.22;;;2.35;;
7330;SDS011;3706;49.198;7.064;2023-11-18T12:59:37;3.45;;;1.88;;
7330;SDS011;3706;49.198;7.064;2023-11-18T13:03:16;2.95;;;2.22;;
7330;SDS011;3706;49.198;7.064;2023-11-18T13:06:52;3.28;;;1.98;;
7330;SDS011;3706;49.198;7.064;2023-11-18T13:10:26;2.50;;;1.45;;
7330;SDS011;3706;49.198;7.064;2023-11-18T13:14:05;3.20;;;2.35;;
7330;SDS011;3706;49.198;7.064;2023-11-18T13:17:56;3.05;;;2.30;;
7330;SDS011;3706;49.198;7.064;2023-11-18T13:21:31;4.70;;;1.75;;
7330;SDS011;3706;49.198;7.064;2023-11-18T13:25:06;4.05;;;2.00;;
7330;SDS011;3706;49.198;7.064;2023-11-18T13:28:47;3.28;;;1.90;;
7330;SDS011;3706;49.198;7.064;2023-11-18T13:32:27;4.07;;;2.55;;
7330;SDS011;3706;49.198;7.064;2023-11-18T13:36:01;1.30;;;1.23;;
7330;SDS011;3706;49.198;7.064;2023-11-18T13:39:34;1.42;;;1.23;;
7330;SDS011;3706;49.198;7.064;2023-11-18T13:43:15;3.70;;;1.52;;
7330;SDS011;3706;49.198;7.064;2023-11-18T13:46:55;1.52;;;0.65;;
7330;SDS011;3706;49.198;7.064;2023-11-18T13:50:33;1.85;;;1.52;;
7330;SDS011;3706;49.198;7.064;2023-11-18T13:54:05;2.53;;;1.73;;
7330;SDS011;3706;49.198;7.064;2023-11-18T13:57:46;1.95;;;1.85;;
7330;SDS011;3706;49.198;7.064;2023-11-18T14:01:26;4.57;;;1.40;;
7330;SDS011;3706;49.198;7.064;2023-11-18T14:05:03;3.28;;;1.83;;
7330;SDS011;3706;49.198;7.064;2023-11-18T14:08:35;1.48;;;1.13;;
7330;SDS011;3706;49.198;7.064;2023-11-18T14:12:14;2.08;;;1.80;;
7330;SDS011;3706;49.198;7.064;2023-11-18T14:15:53;3.70;;;1.35;;
7330;SDS011;3706;49.198;7.064;2023-11-18T14:19:30;2.20;;;1.83;;
7330;SDS011;3706;49.198;7.064;2023-11-18T14:23:02;3.28;;;2.65;;
7330;SDS011;3706;49.198;7.064;2023-11-18T14:26:41;6.22;;;2.45;;
7330;SDS011;3706;49.198;7.064;2023-11-18T14:30:20;2.22;;;1.80;;
7330;SDS011;3706;49.198;7.064;2023-11-18T14:33:58;1.67;;;1.60;;
7330;SDS011;3706;49.198;7.064;2023-11-18T14:37:30;5.75;;;2.15;;
7330;SDS011;3706;49.198;7.064;2023-11-18T14:41:10;4.28;;;2.17;;
7330;SDS011;3706;49.198;7.064;2023-11-18T14:44:49;8.30;;;4.70;;
7330;SDS011;3706;49.198;7.064;2023-11-18T14:48:24;1.35;;;1.13;;
7330;SDS011;3706;49.198;7.064;2023-11-18T14:51:56;6.05;;;1.35;;
7330;SDS011;3706;49.198;7.064;2023-11-18T14:55:35;2.22;;;1.40;;
7330;SDS011;3706;49.198;7.064;2023-11-18T14:59:15;1.90;;;1.17;;
7330;SDS011;3706;49.198;7.064;2023-11-18T15:02:49;1.33;;;1.20;;
7330;SDS011;3706;49.198;7.064;2023-11-18T15:06:24;2.90;;;1.85;;
7330;SDS011;3706;49.198;7.064;2023-11-18T15:10:03;3.53;;;0.95;;
7330;SDS011;3706;49.198;7.064;2023-11-18T15:13:43;2.20;;;1.40;;
7330;SDS011;3706;49.198;7.064;2023-11-18T15:17:20;1.17;;;0.98;;
7330;SDS011;3706;49.198;7.064;2023-11-18T15:20:51;1.48;;;1.00;;
7330;SDS011;3706;49.198;7.064;2023-11-18T15:24:30;1.75;;;1.05;;
7330;SDS011;3706;49.198;7.064;2023-11-18T15:28:10;5.43;;;1.40;;
7330;SDS011;3706;49.198;7.064;2023-11-18T15:31:45;4.18;;;1.88;;
7330;SDS011;3706;49.198;7.064;2023-11-18T15:35:18;1.83;;;1.30;;
7330;SDS011;3706;49.198;7.064;2023-11-18T15:38:58;3.00;;;2.13;;
7330;SDS011;3706;49.198;7.064;2023-11-18T15:42:40;2.30;;;1.48;;
7330;SDS011;3706;49.198;7.064;2023-11-18T15:46:15;2.75;;;1.50;;
7330;SDS011;3706;49.198;7.064;2023-11-18T15:49:47;3.78;;;1.65;;
7330;SDS011;3706;49.198;7.064;2023-11-18T15:53:28;0.28;;;0.28;;
7330;SDS011;3706;49.198;7.064;2023-11-18T15:57:07;1.48;;;0.88;;
7330;SDS011;3706;49.198;7.064;2023-11-18T16:00:41;5.78;;;1.50;;
7330;SDS011;3706;49.198;7.064;2023-11-18T16:04:13;4.32;;;1.75;;
7330;SDS011;3706;49.198;7.064;2023-11-18T16:07:52;0.77;;;0.73;;
7330;SDS011;3706;49.198;7.064;2023-11-18T16:11:34;6.65;;;1.27;;
7330;SDS011;3706;49.198;7.064;2023-11-18T16:15:09;0.90;;;0.77;;
7330;SDS011;3706;49.198;7.064;2023-11-18T16:18:40;7.20;;;1.13;;
7330;SDS011;3706;49.198;7.064;2023-11-18T16:22:20;1.10;;;1.05;;
7330;SDS011;3706;49.198;7.064;2023-11-18T16:25:59;1.02;;;0.98;;
7330;SDS011;3706;49.198;7.064;2023-11-18T16:29:35;1.42;;;0.95;;
7330;SDS011;3706;49.198;7.064;2023-11-18T16:33:07;1.80;;;1.17;;
7330;SDS011;3706;49.198;7.064;2023-11-18T16:36:45;1.90;;;1.42;;
7330;SDS011;3706;49.198;7.064;2023-11-18T16:40:26;0.95;;;0.55;;
7330;SDS011;3706;49.198;7.064;2023-11-18T16:44:00;2.13;;;1.20;;
7330;SDS011;3706;49.198;7.064;2023-11-18T16:47:33;2.22;;;1.67;;
7330;SDS011;3706;49.198;7.064;2023-11-18T16:51:13;4.65;;;1.83;;
7330;SDS011;3706;49.198;7.064;2023-11-18T16:54:52;1.40;;;1.23;;
7330;SDS011;3706;49.198;7.064;2023-11-18T16:58:26;2.38;;;2.17;;
7330;SDS011;3706;49.198;7.064;2023-11-18T17:02:00;2.28;;;1.20;;
7330;SDS011;3706;49.198;7.064;2023-11-18T17:05:42;1.83;;;1.13;;
7330;SDS011;3706;49.198;7.064;2023-11-18T17:09:21;1.58;;;1.48;;
7330;SDS011;3706;49.198;7.064;2023-11-18T17:12:56;1.23;;;0.85;;
7330;SDS011;3706;49.198;7.064;2023-11-18T17:16:29;1.20;;;0.82;;
7330;SDS011;3706;49.198;7.064;2023-11-18T17:20:09;1.27;;;0.95;;
7330;SDS011;3706;49.198;7.064;2023-11-18T17:23:50;1.95;;;1.40;;
7330;SDS011;3706;49.198;7.064;2023-11-18T17:27:24;2.22;;;1.58;;
7330;SDS011;3706;49.198;7.064;2023-11-18T17:30:56;10.43;;;1.95;;
7330;SDS011;3706;49.198;7.064;2023-11-18T17:34:34;1.73;;;1.38;;
7330;SDS011;3706;49.198;7.064;2023-11-18T17:45:58;1.85;;;1.52;;
7330;SDS011;3706;49.198;7.064;2023-11-18T17:49:37;1.95;;;1.48;;
7330;SDS011;3706;49.198;7.064;2023-11-18T17:53:16;3.13;;;1.17;;
7330;SDS011;3706;49.198;7.064;2023-11-18T17:56:51;2.78;;;1.73;;
7330;SDS011;3706;49.198;7.064;2023-11-18T18:00:23;4.38;;;1.92;;
7330;SDS011;3706;49.198;7.064;2023-11-18T18:04:04;1.58;;;1.48;;
7330;SDS011;3706;49.198;7.064;2023-11-18T18:07:43;4.32;;;1.88;;
7330;SDS011;3706;49.198;7.064;2023-11-18T18:11:18;5.45;;;2.25;;
7330;SDS011;3706;49.198;7.064;2023-11-18T18:14:51;2.92;;;2.67;;
7330;SDS011;3706;49.198;7.064;2023-11-18T18:18:30;1.77;;;1.65;;
7330;SDS011;3706;49.198;7.064;2023-11-18T18:22:08;2.67;;;2.20;;
7330;SDS011;3706;49.198;7.064;2023-11-18T18:25:43;3.97;;;1.70;;
7330;SDS011;3706;49.198;7.064;2023-11-18T18:29:16;8.45;;;2.25;;
7330;SDS011;3706;49.198;7.064;2023-11-18T18:32:56;0.68;;;0.68;;
7330;SDS011;3706;49.198;7.064;2023-11-18T18:36:35;2.30;;;1.35;;
7330;SDS011;3706;49.198;7.064;2023-11-18T18:40:10;1.60;;;1.50;;
7330;SDS011;3706;49.198;7.064;2023-11-18T18:43:43;1.23;;;1.15;;
7330;SDS011;3706;49.198;7.064;2023-11-18T18:47:23;2.40;;;1.75;;
7330;SDS011;3706;49.198;7.064;2023-11-18T18:51:04;1.35;;;1.20;;
7330;SDS011;3706;49.198;7.064;2023-11-18T18:54:40;1.15;;;0.98;;
7330;SDS011;3706;49.198;7.064;2023-11-18T18:58:12;1.30;;;1.23;;
7330;SDS011;3706;49.198;7.064;2023-11-18T19:01:51;2.65;;;1.27;;
7330;SDS011;3706;49.198;7.064;2023-11-18T19:05:30;1.55;;;1.02;;
7330;SDS011;3706;49.198;7.064;2023-11-18T19:09:06;11.82;;;2.22;;
7330;SDS011;3706;49.198;7.064;2023-11-18T19:12:38;2.42;;;1.98;;
7330;SDS011;3706;49.198;7.064;2023-11-18T19:16:19;0.95;;;0.82;;
7330;SDS011;3706;49.198;7.064;2023-11-18T19:19:57;2.00;;;1.65;;
7330;SDS011;3706;49.198;7.064;2023-11-18T19:23:32;3.88;;;1.48;;
7330;SDS011;3706;49.198;7.064;2023-11-18T19:27:05;12.40;;;2.17;;
7330;SDS011;3706;49.198;7.064;2023-11-18T19:30:47;3.25;;;2.15;;
7330;SDS011;3706;49.198;7.064;2023-11-18T19:34:27;2.33;;;1.70;;
7330;SDS011;3706;49.198;7.064;2023-11-18T19:38:01;2.58;;;1.67;;
7330;SDS011;3706;49.198;7.064;2023-11-18T19:41:36;1.95;;;1.45;;
7330;SDS011;3706;49.198;7.064;2023-11-18T19:45:16;1.42;;;0.68;;
7330;SDS011;3706;49.198;7.064;2023-11-18T19:48:55;2.83;;;2.25;;
7330;SDS011;3706;49.198;7.064;2023-11-18T19:52:32;1.50;;;1.35;;
7330;SDS011;3706;49.198;7.064;2023-11-18T19:56:04;1.30;;;1.23;;
7330;SDS011;3706;49.198;7.064;2023-11-18T19:59:43;2.05;;;1.77;;
7330;SDS011;3706;49.198;7.064;2023-11-18T20:03:25;1.75;;;1.35;;
7330;SDS011;3706;49.198;7.064;2023-11-18T20:07:02;2.17;;;1.25;;
7330;SDS011;3706;49.198;7.064;2023-11-18T20:10:34;0.88;;;0.85;;
7330;SDS011;3706;49.198;7.064;2023-11-18T20:14:13;3.30;;;1.92;;
7330;SDS011;3706;49.198;7.064;2023-11-18T20:17:51;2.70;;;1.60;;
7330;SDS011;3706;49.198;7.064;2023-11-18T20:21:27;0.63;;;0.63;;
7330;SDS011;3706;49.198;7.064;2023-11-18T20:24:58;1.75;;;1.27;;
7330;SDS011;3706;49.198;7.064;2023-11-18T20:28:37;1.63;;;1.42;;
7330;SDS011;3706;49.198;7.064;2023-11-18T20:32:16;2.88;;;2.08;;
7330;SDS011;3706;49.198;7.064;2023-11-18T20:35:51;1.48;;;1.30;;
7330;SDS011;3706;49.198;7.064;2023-11-18T20:39:25;2.63;;;1.60;;
7330;SDS011;3706;49.198;7.064;2023-11-18T20:43:04;1.30;;;1.23;;
7330;SDS011;3706;49.198;7.064;2023-11-18T20:46:44;1.05;;;1.02;;
7330;SDS011;3706;49.198;7.064;2023-11-18T20:50:19;1.10;;;1.08;;
7330;SDS011;3706;49.198;7.064;2023-11-18T20:53:50;1.60;;;1.38;;
7330;SDS011;3706;49.198;7.064;2023-11-18T20:57:30;1.52;;;1.42;;
7330;SDS011;3706;49.198;7.064;2023-11-18T21:01:09;6.63;;;1.70;;
7330;SDS011;3706;49.198;7.064;2023-11-18T21:04:45;3.55;;;1.55;;
7330;SDS011;3706;49.198;7.064;2023-11-18T21:08:16;9.43;;;2.08;;
7330;SDS011;3706;49.198;7.064;2023-11-18T21:11:55;1.45;;;1.35;;
7330;SDS011;3706;49.198;7.064;2023-11-18T21:15:37;2.42;;;1.42;;
7330;SDS011;3706;49.198;7.064;2023-11-18T21:19:12;5.07;;;1.42;;
7330;SDS011;3706;49.198;7.064;2023-11-18T21:22:43;0.98;;;0.80;;
7330;SDS011;3706;49.198;7.064;2023-11-18T21:26:23;1.88;;;1.60;;
7330;SDS011;3706;49.198;7.064;2023-11-18T21:30:02;0.98;;;0.85;;
7330;SDS011;3706;49.198;7.064;2023-11-18T21:33:38;3.30;;;1.73;;
7330;SDS011;3706;49.198;7.064;2023-11-18T21:37:09;1.02;;;0.98;;
7330;SDS011;3706;49.198;7.064;2023-11-18T21:40:48;1.90;;;1.48;;
7330;SDS011;3706;49.198;7.064;2023-11-18T21:44:27;1.20;;;1.02;;
7330;SDS011;3706;49.198;7.064;2023-11-18T21:48:01;2.28;;;1.25;;
7330;SDS011;3706;49.198;7.064;2023-11-18T21:51:35;1.63;;;1.52;;
7330;SDS011;3706;49.198;7.064;2023-11-18T21:55:14;1.75;;;1.63;;
7330;SDS011;3706;49.198;7.064;2023-11-18T21:58:53;4.18;;;2.28;;
7330;SDS011;3706;49.198;7.064;2023-11-18T22:02:28;2.55;;;1.80;;
7330;SDS011;3706;49.198;7.064;2023-11-18T22:05:59;0.88;;;0.82;;
7330;SDS011;3706;49.198;7.064;2023-11-18T22:09:40;1.98;;;1.70;;
7330;SDS011;3706;49.198;7.064;2023-11-18T22:13:19;2.00;;;1.60;;
7330;SDS011;3706;49.198;7.064;2023-11-18T22:16:54;0.43;;;0.43;;
7330;SDS011;3706;49.198;7.064;2023-11-18T22:20:25;2.05;;;0.98;;
7330;SDS011;3706;49.198;7.064;2023-11-18T22:24:04;2.13;;;1.95;;
7330;SDS011;3706;49.198;7.064;2023-11-18T22:27:48;1.58;;;1.40;;
7330;SDS011;3706;49.198;7.064;2023-11-18T22:31:24;1.25;;;1.08;;
7330;SDS011;3706;49.198;7.064;2023-11-18T22:34:55;1.10;;;1.02;;
7330;SDS011;3706;49.198;7.064;2023-11-18T22:38:34;1.30;;;1.00;;